DEIMT EDDS-EDTY
Flight info
| Callsign | DEIMT |
|---|---|
| Flight time | 0h 30m |
| Altitude | |
| Route | |
| Aircraft | C152 |
Departure
| Time | 2026-05-07 19:09 |
|---|---|
| Airport | Stuttgart Airport (EDDS) |
Arrival
| Time | 2026-05-07 19:39 |
|---|---|
| Airport | Adolf Würth Airport (EDTY) |
| Time | Latitude | Longitude | Altitude | Speed | Heading |
|---|---|---|---|---|---|
| 2026-05-07 18:59 | 48.69185 | 9.21296 | 1279 ft | 5 kts | 253° |
| 2026-05-07 18:59 | 48.69161 | 9.21278 | 1279 ft | 5 kts | 160° |
| 2026-05-07 18:59 | 48.69124 | 9.21296 | 1279 ft | 7 kts | 160° |
| 2026-05-07 18:59 | 48.69089 | 9.21344 | 1279 ft | 8 kts | 90° |
| 2026-05-07 19:00 | 48.69103 | 9.21421 | 1279 ft | 8 kts | 76° |
| 2026-05-07 19:00 | 48.69118 | 9.21501 | 1279 ft | 8 kts | 77° |
| 2026-05-07 19:00 | 48.69139 | 9.21608 | 1279 ft | 12 kts | 73° |
| 2026-05-07 19:00 | 48.69162 | 9.21729 | 1279 ft | 12 kts | 74° |
| 2026-05-07 19:01 | 48.69184 | 9.21849 | 1279 ft | 12 kts | 72° |
| 2026-05-07 19:01 | 48.69207 | 9.21969 | 1279 ft | 12 kts | 74° |
| 2026-05-07 19:01 | 48.69236 | 9.22125 | 1279 ft | 19 kts | 73° |
| 2026-05-07 19:01 | 48.69278 | 9.22343 | 1279 ft | 25 kts | 76° |
| 2026-05-07 19:02 | 48.69325 | 9.22595 | 1279 ft | 24 kts | 73° |
| 2026-05-07 19:02 | 48.69369 | 9.22824 | 1279 ft | 21 kts | 75° |
| 2026-05-07 19:02 | 48.69407 | 9.23031 | 1279 ft | 19 kts | 78° |
| 2026-05-07 19:02 | 48.69343 | 9.23164 | 1279 ft | 16 kts | 163° |
| 2026-05-07 19:03 | 48.69277 | 9.23193 | 1279 ft | 0 kts | 164° |
| 2026-05-07 19:07 | 48.69273 | 9.23195 | 1279 ft | 3 kts | 159° |
| 2026-05-07 19:07 | 48.69219 | 9.23221 | 1279 ft | 11 kts | 168° |
| 2026-05-07 19:07 | 48.69171 | 9.23164 | 1279 ft | 2 kts | 256° |
| 2026-05-07 19:08 | 48.69132 | 9.22950 | 1279 ft | 48 kts | 255° |
| 2026-05-07 19:08 | 48.69009 | 9.22271 | 1345 ft | 75 kts | 255° |
| 2026-05-07 19:08 | 48.68858 | 9.21480 | 1500 ft | 81 kts | 253° |
| 2026-05-07 19:09 | 48.68759 | 9.20664 | 1728 ft | 77 kts | 284° |
| 2026-05-07 19:09 | 48.69113 | 9.20117 | 1903 ft | 78 kts | 337° |
| 2026-05-07 19:09 | 48.69588 | 9.19788 | 2217 ft | 73 kts | 335° |
| 2026-05-07 19:09 | 48.70057 | 9.19460 | 2431 ft | 73 kts | 337° |
| 2026-05-07 19:10 | 48.70524 | 9.19142 | 2599 ft | 76 kts | 333° |
| 2026-05-07 19:10 | 48.71037 | 9.18821 | 2705 ft | 84 kts | 351° |
| 2026-05-07 19:10 | 48.71575 | 9.18901 | 3026 ft | 78 kts | 13° |
| 2026-05-07 19:10 | 48.72116 | 9.19089 | 3368 ft | 82 kts | 12° |
| 2026-05-07 19:11 | 48.72665 | 9.19207 | 3576 ft | 78 kts | 358° |
| 2026-05-07 19:11 | 48.73213 | 9.19131 | 3731 ft | 86 kts | 350° |
| 2026-05-07 19:11 | 48.73904 | 9.19062 | 3484 ft | 114 kts | 358° |
| 2026-05-07 19:11 | 48.74668 | 9.19060 | 3432 ft | 106 kts | 2° |
| 2026-05-07 19:12 | 48.75378 | 9.19166 | 3387 ft | 104 kts | 8° |
| 2026-05-07 19:12 | 48.76088 | 9.19377 | 3277 ft | 104 kts | 12° |
| 2026-05-07 19:12 | 48.76758 | 9.19657 | 3283 ft | 96 kts | 16° |
| 2026-05-07 19:12 | 48.77411 | 9.20020 | 3353 ft | 100 kts | 23° |
| 2026-05-07 19:13 | 48.78070 | 9.20418 | 3380 ft | 106 kts | 21° |
| 2026-05-07 19:13 | 48.78765 | 9.20799 | 3450 ft | 105 kts | 18° |
| 2026-05-07 19:13 | 48.79462 | 9.21166 | 3430 ft | 107 kts | 19° |
| 2026-05-07 19:13 | 48.80159 | 9.21587 | 3455 ft | 107 kts | 20° |
| 2026-05-07 19:14 | 48.80838 | 9.22026 | 3470 ft | 106 kts | 25° |
| 2026-05-07 19:14 | 48.81493 | 9.22617 | 3449 ft | 112 kts | 30° |
| 2026-05-07 19:14 | 48.82147 | 9.23215 | 3417 ft | 109 kts | 29° |
| 2026-05-07 19:14 | 48.82803 | 9.23837 | 3299 ft | 112 kts | 32° |
| 2026-05-07 19:15 | 48.83449 | 9.24453 | 3299 ft | 108 kts | 28° |
| 2026-05-07 19:15 | 48.84122 | 9.24968 | 3215 ft | 111 kts | 25° |
| 2026-05-07 19:15 | 48.84770 | 9.25602 | 3168 ft | 108 kts | 37° |
| 2026-05-07 19:15 | 48.85389 | 9.26244 | 3147 ft | 108 kts | 27° |
| 2026-05-07 19:16 | 48.86023 | 9.26826 | 3111 ft | 107 kts | 32° |
| 2026-05-07 19:16 | 48.86678 | 9.27391 | 3061 ft | 108 kts | 23° |
| 2026-05-07 19:16 | 48.87378 | 9.27773 | 3101 ft | 106 kts | 16° |
| 2026-05-07 19:16 | 48.88075 | 9.28169 | 3080 ft | 111 kts | 24° |
| 2026-05-07 19:17 | 48.88766 | 9.28618 | 3090 ft | 105 kts | 24° |
| 2026-05-07 19:17 | 48.89401 | 9.29172 | 3195 ft | 103 kts | 34° |
| 2026-05-07 19:17 | 48.89851 | 9.30014 | 3147 ft | 110 kts | 63° |
| 2026-05-07 19:17 | 48.90041 | 9.31141 | 3155 ft | 106 kts | 81° |
| 2026-05-07 19:18 | 48.90165 | 9.32224 | 3270 ft | 103 kts | 73° |
| 2026-05-07 19:18 | 48.90376 | 9.33277 | 3252 ft | 106 kts | 70° |
| 2026-05-07 19:18 | 48.90527 | 9.34375 | 3259 ft | 108 kts | 82° |
| 2026-05-07 19:18 | 48.90538 | 9.35497 | 3308 ft | 106 kts | 91° |
| 2026-05-07 19:19 | 48.90520 | 9.36624 | 3345 ft | 104 kts | 85° |
| 2026-05-07 19:19 | 48.90669 | 9.37699 | 3332 ft | 106 kts | 70° |
| 2026-05-07 19:19 | 48.90935 | 9.38721 | 3395 ft | 104 kts | 66° |
| 2026-05-07 19:19 | 48.91204 | 9.39752 | 3427 ft | 105 kts | 67° |
| 2026-05-07 19:20 | 48.91474 | 9.40777 | 3490 ft | 105 kts | 67° |
| 2026-05-07 19:20 | 48.91737 | 9.41816 | 3514 ft | 106 kts | 68° |
| 2026-05-07 19:20 | 48.91976 | 9.42874 | 3543 ft | 107 kts | 70° |
| 2026-05-07 19:20 | 48.92242 | 9.43920 | 3569 ft | 105 kts | 58° |
| 2026-05-07 19:21 | 48.92700 | 9.44771 | 3600 ft | 104 kts | 44° |
| 2026-05-07 19:21 | 48.93238 | 9.45546 | 3576 ft | 106 kts | 41° |
| 2026-05-07 19:21 | 48.93764 | 9.46311 | 3599 ft | 105 kts | 41° |
| 2026-05-07 19:21 | 48.94337 | 9.46994 | 3603 ft | 104 kts | 33° |
| 2026-05-07 19:22 | 48.94946 | 9.47607 | 3584 ft | 106 kts | 31° |
| 2026-05-07 19:22 | 48.95561 | 9.48211 | 3595 ft | 106 kts | 32° |
| 2026-05-07 19:22 | 48.96163 | 9.48823 | 3595 ft | 106 kts | 33° |
| 2026-05-07 19:22 | 48.96776 | 9.49482 | 3567 ft | 106 kts | 35° |
| 2026-05-07 19:23 | 48.97343 | 9.50152 | 3584 ft | 104 kts | 38° |
| 2026-05-07 19:23 | 48.97895 | 9.50895 | 3556 ft | 107 kts | 43° |
| 2026-05-07 19:23 | 48.98410 | 9.51695 | 3563 ft | 106 kts | 45° |
| 2026-05-07 19:23 | 48.98909 | 9.52527 | 3556 ft | 106 kts | 48° |
| 2026-05-07 19:24 | 48.99367 | 9.53410 | 3562 ft | 106 kts | 51° |
| 2026-05-07 19:24 | 48.99822 | 9.54295 | 3553 ft | 108 kts | 50° |
| 2026-05-07 19:24 | 49.00267 | 9.55185 | 3548 ft | 104 kts | 53° |
| 2026-05-07 19:24 | 49.00686 | 9.56111 | 3471 ft | 108 kts | 55° |
| 2026-05-07 19:25 | 49.01074 | 9.57077 | 3453 ft | 105 kts | 59° |
| 2026-05-07 19:25 | 49.01415 | 9.58038 | 3479 ft | 102 kts | 62° |
| 2026-05-07 19:25 | 49.01715 | 9.59016 | 3500 ft | 103 kts | 64° |
| 2026-05-07 19:25 | 49.02010 | 9.60029 | 3486 ft | 104 kts | 65° |
| 2026-05-07 19:26 | 49.02277 | 9.61052 | 3486 ft | 104 kts | 69° |
| 2026-05-07 19:26 | 49.02496 | 9.62108 | 3454 ft | 106 kts | 73° |
| 2026-05-07 19:26 | 49.02605 | 9.62830 | 3451 ft | 105 kts | 77° |
| 2026-05-07 19:26 | 49.02700 | 9.63921 | 3449 ft | 105 kts | 85° |
| 2026-05-07 19:27 | 49.02740 | 9.65036 | 3432 ft | 104 kts | 84° |
| 2026-05-07 19:27 | 49.02811 | 9.66128 | 3427 ft | 105 kts | 83° |
| 2026-05-07 19:27 | 49.02888 | 9.67237 | 3399 ft | 104 kts | 83° |
| 2026-05-07 19:27 | 49.03200 | 9.68606 | 3372 ft | 103 kts | 51° |
| 2026-05-07 19:28 | 49.03537 | 9.69116 | 3399 ft | 100 kts | 36° |
| 2026-05-07 19:28 | 49.04131 | 9.69656 | 3382 ft | 101 kts | 26° |
| 2026-05-07 19:28 | 49.04779 | 9.70101 | 3383 ft | 101 kts | 21° |
| 2026-05-07 19:28 | 49.05436 | 9.70472 | 3374 ft | 102 kts | 19° |
| 2026-05-07 19:29 | 49.06108 | 9.70839 | 3372 ft | 102 kts | 20° |
| 2026-05-07 19:29 | 49.06760 | 9.71241 | 3369 ft | 102 kts | 22° |
| 2026-05-07 19:29 | 49.07408 | 9.71671 | 3337 ft | 99 kts | 23° |
| 2026-05-07 19:29 | 49.08044 | 9.72132 | 3230 ft | 101 kts | 26° |
| 2026-05-07 19:30 | 49.08652 | 9.72673 | 3154 ft | 101 kts | 34° |
| 2026-05-07 19:30 | 49.09190 | 9.73375 | 3043 ft | 103 kts | 44° |
| 2026-05-07 19:30 | 49.09621 | 9.74238 | 2955 ft | 102 kts | 62° |
| 2026-05-07 19:30 | 49.09846 | 9.75244 | 2932 ft | 99 kts | 74° |
| 2026-05-07 19:31 | 49.09997 | 9.76273 | 2855 ft | 99 kts | 78° |
| 2026-05-07 19:31 | 49.10106 | 9.77329 | 2742 ft | 97 kts | 83° |
| 2026-05-07 19:31 | 49.10135 | 9.78260 | 2656 ft | 81 kts | 89° |
| 2026-05-07 19:31 | 49.10111 | 9.79077 | 2507 ft | 79 kts | 92° |
| 2026-05-07 19:32 | 49.10036 | 9.79942 | 2297 ft | 79 kts | 100° |
| 2026-05-07 19:32 | 49.09959 | 9.80729 | 2198 ft | 72 kts | 77° |
| 2026-05-07 19:32 | 49.10255 | 9.81306 | 2174 ft | 70 kts | 26° |
| 2026-05-07 19:32 | 49.10687 | 9.81355 | 2148 ft | 66 kts | 352° |
| 2026-05-07 19:33 | 49.11151 | 9.81185 | 2051 ft | 72 kts | 343° |
| 2026-05-07 19:33 | 49.11563 | 9.80814 | 1985 ft | 67 kts | 302° |
| 2026-05-07 19:33 | 49.11645 | 9.80079 | 1724 ft | 74 kts | 279° |
| 2026-05-07 19:33 | 49.11732 | 9.79375 | 1501 ft | 63 kts | 279° |
| 2026-05-07 19:34 | 49.11791 | 9.78760 | 1326 ft | 51 kts | 281° |
| 2026-05-07 19:34 | 49.11845 | 9.78292 | 1308 ft | 55 kts | 279° |
| 2026-05-07 19:34 | 49.11910 | 9.77608 | 1433 ft | 68 kts | 277° |
| 2026-05-07 19:34 | 49.11932 | 9.76840 | 1578 ft | 77 kts | 272° |
| 2026-05-07 19:35 | 49.11925 | 9.76038 | 1802 ft | 70 kts | 281° |
| 2026-05-07 19:35 | 49.12261 | 9.75590 | 1983 ft | 73 kts | 355° |
| 2026-05-07 19:35 | 49.12758 | 9.75662 | 2195 ft | 71 kts | 8° |
| 2026-05-07 19:35 | 49.13184 | 9.75995 | 2389 ft | 71 kts | 53° |
| 2026-05-07 19:36 | 49.13280 | 9.76755 | 2507 ft | 82 kts | 92° |
| 2026-05-07 19:36 | 49.13229 | 9.77689 | 2540 ft | 92 kts | 93° |
| 2026-05-07 19:36 | 49.13193 | 9.78654 | 2519 ft | 88 kts | 92° |
| 2026-05-07 19:36 | 49.13133 | 9.79520 | 2484 ft | 79 kts | 95° |
| 2026-05-07 19:37 | 49.13094 | 9.80322 | 2429 ft | 76 kts | 92° |
| 2026-05-07 19:37 | 49.13043 | 9.81148 | 2310 ft | 79 kts | 95° |
| 2026-05-07 19:37 | 49.12940 | 9.81979 | 2196 ft | 79 kts | 114° |
| 2026-05-07 19:37 | 49.12553 | 9.82496 | 2141 ft | 76 kts | 163° |
| 2026-05-07 19:38 | 49.12039 | 9.82496 | 2077 ft | 71 kts | 190° |
| 2026-05-07 19:38 | 49.11673 | 9.82033 | 2051 ft | 78 kts | 244° |
| 2026-05-07 19:38 | 49.11556 | 9.81222 | 1926 ft | 72 kts | 275° |
| 2026-05-07 19:38 | 49.11614 | 9.80491 | 1697 ft | 67 kts | 279° |
| 2026-05-07 19:39 | 49.11688 | 9.79789 | 1465 ft | 66 kts | 279° |
| 2026-05-07 19:39 | 49.11754 | 9.79128 | 1321 ft | 56 kts | 281° |
| 2026-05-07 19:39 | 49.11807 | 9.78665 | 1308 ft | 38 kts | 277° |
| 2026-05-07 19:39 | 49.11867 | 9.78064 | 1350 ft | 70 kts | 278° |
| 2026-05-07 19:40 | 49.11918 | 9.77300 | 1530 ft | 73 kts | 276° |
| 2026-05-07 19:40 | 49.11967 | 9.76532 | 1738 ft | 71 kts | 277° |
| 2026-05-07 19:40 | 49.12179 | 9.75936 | 1963 ft | 65 kts | 336° |
| 2026-05-07 19:40 | 49.12665 | 9.75971 | 2104 ft | 75 kts | 17° |
| 2026-05-07 19:41 | 49.13140 | 9.76234 | 2308 ft | 74 kts | 22° |
| 2026-05-07 19:41 | 49.13423 | 9.76860 | 2458 ft | 80 kts | 83° |
| 2026-05-07 19:41 | 49.13390 | 9.77824 | 2440 ft | 99 kts | 94° |
| 2026-05-07 19:41 | 49.13322 | 9.78859 | 2419 ft | 96 kts | 95° |
| 2026-05-07 19:42 | 49.13221 | 9.79832 | 2401 ft | 90 kts | 101° |
| 2026-05-07 19:42 | 49.13065 | 9.80733 | 2328 ft | 85 kts | 105° |
| 2026-05-07 19:42 | 49.12865 | 9.81576 | 2230 ft | 82 kts | 119° |
| 2026-05-07 19:42 | 49.12413 | 9.82049 | 2104 ft | 82 kts | 173° |
| 2026-05-07 19:43 | 49.11905 | 9.81795 | 1978 ft | 74 kts | 214° |
| 2026-05-07 19:43 | 49.11636 | 9.81153 | 1815 ft | 76 kts | 255° |
| 2026-05-07 19:43 | 49.11627 | 9.80422 | 1623 ft | 65 kts | 279° |
| 2026-05-07 19:43 | 49.11693 | 9.79769 | 1415 ft | 60 kts | 284° |
| 2026-05-07 19:44 | 49.11747 | 9.79207 | 1312 ft | 43 kts | 283° |
| 2026-05-07 19:44 | 49.11791 | 9.78800 | 1306 ft | 52 kts | 278° |
| 2026-05-07 19:44 | 49.11853 | 9.78143 | 1439 ft | 64 kts | 277° |
| 2026-05-07 19:44 | 49.11883 | 9.77456 | 1621 ft | 67 kts | 273° |
| 2026-05-07 19:45 | 49.11910 | 9.76748 | 1815 ft | 65 kts | 284° |
| 2026-05-07 19:45 | 49.12214 | 9.76240 | 1955 ft | 74 kts | 344° |
| 2026-05-07 19:45 | 49.12745 | 9.76116 | 2129 ft | 74 kts | 4° |
| 2026-05-07 19:45 | 49.13194 | 9.76517 | 2262 ft | 82 kts | 51° |
| 2026-05-07 19:46 | 49.13296 | 9.77385 | 2373 ft | 91 kts | 95° |
| 2026-05-07 19:46 | 49.13203 | 9.78369 | 2434 ft | 90 kts | 100° |
| 2026-05-07 19:46 | 49.13055 | 9.79220 | 2434 ft | 78 kts | 102° |
| 2026-05-07 19:46 | 49.13005 | 9.80002 | 2369 ft | 75 kts | 90° |
| 2026-05-07 19:47 | 49.12946 | 9.80825 | 2243 ft | 78 kts | 98° |
| 2026-05-07 19:47 | 49.12836 | 9.81630 | 2160 ft | 79 kts | 105° |
| 2026-05-07 19:47 | 49.12588 | 9.82341 | 2103 ft | 78 kts | 141° |
| 2026-05-07 19:47 | 49.12070 | 9.82475 | 2028 ft | 79 kts | 198° |
| 2026-05-07 19:48 | 49.11661 | 9.82012 | 2029 ft | 70 kts | 238° |
| 2026-05-07 19:48 | 49.11554 | 9.81326 | 1892 ft | 67 kts | 272° |
| 2026-05-07 19:48 | 49.11602 | 9.80623 | 1714 ft | 68 kts | 280° |
| 2026-05-07 19:48 | 49.11677 | 9.79906 | 1487 ft | 68 kts | 284° |
| 2026-05-07 19:49 | 49.11744 | 9.79240 | 1332 ft | 55 kts | 282° |
| 2026-05-07 19:49 | 49.11790 | 9.78757 | 1306 ft | 37 kts | 280° |
| 2026-05-07 19:49 | 49.11835 | 9.78386 | 1307 ft | 37 kts | 278° |
| 2026-05-07 19:49 | 49.11869 | 9.78098 | 1310 ft | 7 kts | 319° |
| 2026-05-07 19:50 | 49.11902 | 9.78101 | 1312 ft | 0 kts | 8° |
| 2026-05-07 19:50 | 49.11906 | 9.78102 | 1312 ft | 4 kts | 2° |
| 2026-05-07 19:50 | 49.11948 | 9.78107 | 1313 ft | 7 kts | 3° |
| 2026-05-07 19:50 | 49.11953 | 9.78107 | 1313 ft | 0 kts | 2° |
| 2026-05-07 19:51 | 49.11963 | 9.78111 | 1313 ft | 5 kts | 51° |
| 2026-05-07 19:51 | 49.11947 | 9.78113 | 1313 ft | 1 kts | 214° |
| 2026-05-07 19:51 | 49.11945 | 9.78111 | 1313 ft | 0 kts | 184° |